Time;durP1;ratioP1;P1;durP2;ratioP2;P2;SDS_P1;SDS_P2;PMS_P1;PMS_P2;Temp;Humidity;BMP_temperature;BMP_pressure;BME280_temperature;BME280_humidity;BME280_pressure;Samples;Min_cycle;Max_cycle;Signal;HPM_P1;HPM_P2
2022/01/29 00:00:00;;;;;;;2.40;2.40;;;16.00;63.50;;;;;;5069875;28;44031;-75
2022/01/29 00:02:31;;;;;;;2.20;2.20;;;16.00;63.70;;;;;;5053208;28;43940;-75
2022/01/29 00:05:01;;;;;;;2.47;2.40;;;15.90;63.70;;;;;;5070356;28;43478;-75
2022/01/29 00:07:31;;;;;;;2.60;2.50;;;15.90;63.90;;;;;;5036744;28;44075;-75
2022/01/29 00:10:03;;;;;;;2.33;2.33;;;15.90;64.30;;;;;;5053397;28;44097;-75
2022/01/29 00:12:32;;;;;;;2.50;2.40;;;16.00;64.30;;;;;;5080728;28;44222;-75
2022/01/29 00:15:01;;;;;;;2.20;2.20;;;16.20;63.90;;;;;;5070898;28;44051;-75
2022/01/29 00:17:32;;;;;;;2.50;2.50;;;16.30;63.30;;;;;;5070200;28;43951;-75
2022/01/29 00:20:02;;;;;;;2.30;2.30;;;16.40;63.00;;;;;;5069144;28;45574;-75
2022/01/29 00:22:31;;;;;;;2.80;2.70;;;16.40;62.70;;;;;;5052369;28;44039;-75
2022/01/29 00:25:01;;;;;;;2.60;2.50;;;16.40;62.60;;;;;;5069405;28;44018;-75
2022/01/29 00:27:34;;;;;;;2.40;2.30;;;16.30;62.80;;;;;;5052785;28;44420;-75
2022/01/29 00:30:13;;;;;;;2.43;2.43;;;16.20;63.00;;;;;;5054449;28;44101;-75
2022/01/29 00:32:43;;;;;;;2.40;2.40;;;16.10;63.10;;;;;;5069151;28;44043;-75
2022/01/29 00:35:13;;;;;;;2.33;2.33;;;16.10;63.30;;;;;;5052783;28;44055;-75
2022/01/29 00:37:42;;;;;;;2.53;2.43;;;16.00;63.40;;;;;;5035658;28;43997;-75
2022/01/29 00:40:14;;;;;;;2.60;2.50;;;16.00;63.60;;;;;;5036356;28;43969;-75
2022/01/29 00:42:43;;;;;;;2.20;2.20;;;15.90;63.70;;;;;;5052741;28;43961;-75
2022/01/29 00:45:12;;;;;;;2.23;2.23;;;15.90;63.80;;;;;;5069701;28;44154;-75
2022/01/29 00:47:44;;;;;;;2.17;2.17;;;15.90;63.90;;;;;;5068346;28;43957;-75
2022/01/29 00:50:13;;;;;;;2.60;2.50;;;15.90;64.20;;;;;;5053962;28;44113;-75
2022/01/29 00:52:43;;;;;;;2.33;2.33;;;15.90;64.20;;;;;;5052564;28;43870;-75
2022/01/29 00:55:12;;;;;;;2.63;2.53;;;16.10;64.00;;;;;;5046776;28;44240;-75
2022/01/29 00:57:42;;;;;;;2.43;2.43;;;16.30;63.40;;;;;;5062840;28;43965;-75
2022/01/29 01:00:12;;;;;;;2.50;2.50;;;16.40;62.90;;;;;;5057080;28;44090;-75
2022/01/29 01:02:43;;;;;;;2.40;2.40;;;16.40;62.60;;;;;;5069019;28;44014;-75
2022/01/29 01:05:12;;;;;;;2.60;2.50;;;16.40;62.50;;;;;;5070266;28;43874;-75
2022/01/29 01:07:42;;;;;;;2.20;2.20;;;16.30;62.60;;;;;;5068990;28;44406;-75
2022/01/29 01:10:12;;;;;;;2.70;2.60;;;16.30;62.80;;;;;;5069210;28;43956;-75
2022/01/29 01:12:42;;;;;;;2.23;2.23;;;16.20;63.00;;;;;;5068077;28;43350;-75
2022/01/29 01:15:12;;;;;;;2.53;2.43;;;16.10;63.10;;;;;;5036607;28;44080;-75
2022/01/29 01:17:41;;;;;;;2.87;2.77;;;16.10;63.40;;;;;;5051854;28;44057;-75
2022/01/29 01:20:14;;;;;;;2.67;2.57;;;16.00;63.50;;;;;;5052317;28;43440;-75
2022/01/29 01:22:43;;;;;;;2.57;2.57;;;16.00;63.60;;;;;;5052254;28;44005;-75
2022/01/29 01:25:12;;;;;;;2.50;2.50;;;15.90;63.70;;;;;;5053807;28;44090;-75
2022/01/29 01:27:41;;;;;;;2.43;2.43;;;15.90;63.80;;;;;;5068565;28;44297;-75
2022/01/29 01:30:12;;;;;;;2.33;2.23;;;15.90;64.00;;;;;;5052960;28;44022;-75
2022/01/29 01:32:42;;;;;;;2.60;2.60;;;15.90;64.30;;;;;;5068370;28;43970;-75
2022/01/29 01:35:18;;;;;;;2.53;2.43;;;16.00;64.10;;;;;;5069319;28;43984;-75
2022/01/29 01:37:51;;;;;;;2.30;2.30;;;16.20;63.60;;;;;;5068769;28;44721;-75
2022/01/29 01:40:22;;;;;;;2.50;2.50;;;16.40;63.20;;;;;;5051966;28;44048;-75
2022/01/29 01:42:58;;;;;;;3.10;3.00;;;16.40;62.80;;;;;;5069161;28;43454;-75
2022/01/29 01:45:28;;;;;;;2.67;2.63;;;16.40;62.70;;;;;;5063086;28;43470;-75
2022/01/29 01:47:57;;;;;;;2.20;2.20;;;16.30;62.60;;;;;;5068198;28;44077;-75
2022/01/29 01:50:27;;;;;;;2.40;2.40;;;16.30;62.90;;;;;;5068316;28;43964;-75
2022/01/29 01:52:56;;;;;;;2.40;2.40;;;16.20;63.00;;;;;;5068833;28;44029;-75
2022/01/29 01:55:26;;;;;;;2.30;2.30;;;16.10;63.20;;;;;;5067757;28;44146;-75
2022/01/29 01:57:55;;;;;;;2.87;2.77;;;16.10;63.50;;;;;;5051309;28;44217;-75
2022/01/29 02:00:24;;;;;;;2.60;2.50;;;16.00;63.50;;;;;;5067761;28;43514;-75
2022/01/29 02:02:54;;;;;;;2.50;2.40;;;16.00;63.60;;;;;;5068369;28;43817;-75
2022/01/29 02:05:24;;;;;;;2.90;2.80;;;15.90;63.70;;;;;;5052298;28;43653;-75
2022/01/29 02:07:56;;;;;;;2.60;2.50;;;15.90;63.80;;;;;;5051275;28;44887;-75
2022/01/29 02:10:27;;;;;;;2.93;2.83;;;15.90;63.90;;;;;;5051412;28;43372;-75
2022/01/29 02:12:58;;;;;;;2.40;2.40;;;15.90;64.30;;;;;;5051675;28;44013;-75
2022/01/29 02:15:28;;;;;;;2.60;2.50;;;16.00;64.30;;;;;;5068696;28;43992;-75
2022/01/29 02:17:57;;;;;;;2.90;2.80;;;16.10;63.70;;;;;;5056122;28;44104;-75
2022/01/29 02:20:26;;;;;;;2.33;2.33;;;16.10;63.40;;;;;;5050928;28;43842;-75
2022/01/29 02:23:00;;;;;;;2.63;2.53;;;16.10;63.00;;;;;;5066486;28;43479;-75
2022/01/29 02:25:31;;;;;;;2.90;2.80;;;16.10;63.30;;;;;;5051224;28;43821;-75
2022/01/29 02:28:01;;;;;;;2.77;2.67;;;16.10;63.30;;;;;;5066783;28;44042;-75
2022/01/29 02:30:32;;;;;;;2.90;2.80;;;16.00;63.40;;;;;;5050350;28;44129;-75
2022/01/29 02:33:03;;;;;;;3.03;2.93;;;16.00;63.60;;;;;;5043813;28;43830;-75
2022/01/29 02:35:32;;;;;;;2.70;2.60;;;15.90;63.70;;;;;;5060408;28;43702;-75
2022/01/29 02:38:04;;;;;;;3.23;3.13;;;15.90;63.80;;;;;;5066599;28;44039;-75
2022/01/29 02:40:36;;;;;;;2.87;2.80;;;15.90;63.90;;;;;;5066783;28;43399;-75
2022/01/29 02:43:12;;;;;;;2.70;2.70;;;15.90;64.10;;;;;;5067354;28;43438;-75
2022/01/29 02:45:43;;;;;;;3.03;2.93;;;15.90;64.20;;;;;;5051057;28;44015;-75
2022/01/29 02:48:12;;;;;;;2.70;2.63;;;15.80;64.00;;;;;;5050685;28;43958;-75
2022/01/29 02:50:41;;;;;;;2.53;2.43;;;15.80;64.00;;;;;;5067226;28;44058;-75
2022/01/29 02:53:11;;;;;;;2.80;2.70;;;15.80;64.20;;;;;;5050462;28;43920;-75
2022/01/29 02:55:40;;;;;;;3.00;2.90;;;15.90;64.50;;;;;;5051895;28;44190;-75
2022/01/29 02:58:11;;;;;;;2.77;2.67;;;16.00;64.20;;;;;;5034504;28;44615;-75
2022/01/29 03:00:40;;;;;;;2.67;2.67;;;16.20;63.70;;;;;;5067052;28;44177;-75
2022/01/29 03:03:10;;;;;;;2.57;2.47;;;16.30;63.20;;;;;;5068530;28;43428;-75
2022/01/29 03:05:39;;;;;;;2.83;2.73;;;16.40;62.80;;;;;;5051370;28;43662;-75
2022/01/29 03:08:07;;;;;;;2.70;2.60;;;16.50;62.50;;;;;;5049284;28;44013;-75
2022/01/29 03:10:39;;;;;;;2.63;2.63;;;16.50;62.40;;;;;;5049691;28;43977;-75
2022/01/29 03:13:08;;;;;;;2.47;2.40;;;16.40;62.40;;;;;;5047724;28;44008;-75
2022/01/29 03:15:39;;;;;;;2.90;2.80;;;16.30;62.50;;;;;;5067268;28;44041;-75
2022/01/29 03:18:09;;;;;;;2.90;2.80;;;16.20;62.70;;;;;;5066071;28;44409;-75
2022/01/29 03:20:38;;;;;;;2.87;2.77;;;16.20;63.00;;;;;;5066296;28;43935;-75
2022/01/29 03:23:07;;;;;;;2.87;2.77;;;16.10;63.20;;;;;;5065917;28;44026;-75
2022/01/29 03:25:38;;;;;;;2.90;2.80;;;16.10;63.40;;;;;;5043276;28;43996;-75
2022/01/29 03:28:09;;;;;;;3.00;2.90;;;16.00;63.50;;;;;;5065868;28;44334;-75
2022/01/29 03:30:39;;;;;;;2.97;2.87;;;16.00;63.70;;;;;;5065298;28;43998;-76
2022/01/29 03:33:10;;;;;;;2.70;2.60;;;15.90;63.70;;;;;;5065764;28;43999;-75
2022/01/29 03:35:40;;;;;;;2.70;2.60;;;15.90;64.10;;;;;;5033090;28;44052;-75
2022/01/29 03:38:10;;;;;;;2.40;2.40;;;16.00;64.10;;;;;;5049882;28;44129;-75
2022/01/29 03:40:42;;;;;;;2.80;2.70;;;16.20;63.70;;;;;;5049261;28;44043;-75
2022/01/29 03:43:14;;;;;;;2.53;2.53;;;16.30;63.10;;;;;;5066036;28;43932;-75
2022/01/29 03:45:43;;;;;;;2.40;2.40;;;16.40;62.80;;;;;;5050193;28;43940;-75
2022/01/29 03:48:12;;;;;;;2.73;2.63;;;16.40;62.50;;;;;;5034692;28;44418;-75
2022/01/29 03:50:42;;;;;;;3.00;2.90;;;16.30;62.50;;;;;;5049262;28;44075;-75
2022/01/29 03:53:13;;;;;;;2.60;2.60;;;16.30;62.90;;;;;;5050305;28;44007;-75
2022/01/29 03:55:43;;;;;;;2.47;2.47;;;16.20;62.90;;;;;;5050925;28;44035;-75
2022/01/29 03:58:13;;;;;;;2.50;2.40;;;16.10;63.10;;;;;;5050567;28;44055;-75
2022/01/29 04:00:43;;;;;;;2.60;2.57;;;16.10;63.30;;;;;;5049822;28;44059;-75
2022/01/29 04:03:13;;;;;;;2.77;2.70;;;16.00;63.40;;;;;;5066555;28;43944;-75
2022/01/29 04:05:43;;;;;;;2.70;2.60;;;16.00;63.60;;;;;;5049412;28;43484;-75
2022/01/29 04:08:16;;;;;;;2.43;2.43;;;16.00;63.70;;;;;;5068057;28;43806;-75
2022/01/29 04:10:48;;;;;;;3.00;2.90;;;15.90;63.70;;;;;;5064356;28;43613;-75
2022/01/29 04:13:22;;;;;;;2.40;2.40;;;15.90;63.90;;;;;;5038356;28;44026;-75
2022/01/29 04:15:51;;;;;;;2.80;2.70;;;15.90;64.10;;;;;;5059431;28;43963;-75
2022/01/29 04:18:21;;;;;;;2.53;2.53;;;16.00;64.20;;;;;;5033024;28;45440;-75
2022/01/29 04:20:51;;;;;;;2.70;2.63;;;16.10;63.80;;;;;;5051665;28;44080;-75
2022/01/29 04:23:21;;;;;;;2.30;2.30;;;16.30;63.40;;;;;;5068342;28;43951;-75
2022/01/29 04:25:53;;;;;;;2.83;2.73;;;16.40;62.90;;;;;;5035294;28;43997;-75
2022/01/29 04:28:25;;;;;;;2.60;2.60;;;16.40;62.60;;;;;;5068260;28;44414;-75
2022/01/29 04:30:59;;;;;;;2.40;2.40;;;16.40;62.50;;;;;;5051719;28;44083;-75
2022/01/29 04:33:31;;;;;;;2.50;2.43;;;16.30;62.60;;;;;;5052227;28;43892;-75
2022/01/29 04:36:01;;;;;;;2.50;2.50;;;16.30;62.90;;;;;;5067913;28;43616;-75
2022/01/29 04:38:30;;;;;;;2.80;2.70;;;16.20;63.00;;;;;;5067650;28;43839;-75
2022/01/29 04:41:03;;;;;;;2.50;2.50;;;16.10;63.20;;;;;;5067590;28;44945;-75
2022/01/29 04:43:33;;;;;;;2.30;2.30;;;16.10;63.40;;;;;;5069887;28;43813;-75
2022/01/29 04:46:09;;;;;;;2.23;2.23;;;16.00;63.50;;;;;;5061968;28;43959;-75
2022/01/29 04:48:39;;;;;;;2.50;2.50;;;16.00;63.70;;;;;;5051755;28;44847;-75
2022/01/29 04:51:08;;;;;;;2.30;2.30;;;15.90;63.70;;;;;;5045304;28;43982;-75
2022/01/29 04:53:40;;;;;;;2.63;2.53;;;15.90;63.80;;;;;;5034922;28;43499;-75
2022/01/29 04:56:11;;;;;;;2.33;2.33;;;15.90;64.00;;;;;;5036218;28;44005;-75
2022/01/29 04:58:42;;;;;;;2.43;2.43;;;15.90;64.30;;;;;;5050782;28;45952;-75
2022/01/29 05:01:11;;;;;;;2.60;2.60;;;16.10;64.10;;;;;;5034663;28;44075;-75
2022/01/29 05:03:41;;;;;;;2.40;2.30;;;16.20;63.40;;;;;;5051040;28;44108;-75
2022/01/29 05:06:12;;;;;;;2.70;2.60;;;16.30;62.90;;;;;;5051693;28;43929;-75
2022/01/29 05:08:43;;;;;;;2.60;2.50;;;16.40;62.70;;;;;;5067398;28;45543;-75
2022/01/29 05:11:15;;;;;;;3.00;2.90;;;16.40;62.60;;;;;;5068419;28;44131;-75
2022/01/29 05:13:46;;;;;;;2.37;2.37;;;16.30;62.70;;;;;;5036049;28;44012;-75
2022/01/29 05:16:35;;;;;;;2.50;2.50;;;16.20;62.80;;;;;;5067894;28;44007;-75
2022/01/29 05:27:28;;;;;;;2.27;2.27;;;16.00;63.60;;;;;;5067493;28;43856;-75
2022/01/29 05:29:58;;;;;;;2.30;2.30;;;16.00;63.80;;;;;;5032838;28;44092;-75
2022/01/29 05:32:28;;;;;;;2.30;2.30;;;15.90;63.70;;;;;;5049844;28;43991;-75
2022/01/29 05:34:58;;;;;;;2.43;2.43;;;15.90;63.80;;;;;;5051136;28;44043;-75
2022/01/29 05:37:43;;;;;;;2.97;2.87;;;15.90;64.10;;;;;;5053777;28;44024;-75
2022/01/29 05:40:13;;;;;;;2.50;2.50;;;16.00;64.20;;;;;;5035301;28;45307;-75
2022/01/29 05:42:44;;;;;;;2.87;2.77;;;16.20;63.80;;;;;;5051373;28;43949;-75
2022/01/29 05:45:13;;;;;;;2.57;2.57;;;16.30;63.20;;;;;;5051930;28;44016;-75
2022/01/29 05:47:42;;;;;;;2.60;2.60;;;16.40;62.90;;;;;;5052157;28;43926;-75
2022/01/29 05:50:12;;;;;;;2.30;2.30;;;16.30;62.60;;;;;;5068506;28;45047;-75
2022/01/29 05:52:41;;;;;;;2.30;2.30;;;16.30;62.80;;;;;;5068296;28;44130;-75
2022/01/29 05:55:11;;;;;;;2.63;2.53;;;16.20;62.90;;;;;;5067266;28;43458;-75
2022/01/29 05:57:40;;;;;;;2.87;2.77;;;16.20;63.20;;;;;;5050930;28;43921;-75
2022/01/29 06:00:11;;;;;;;2.67;2.60;;;16.10;63.20;;;;;;5051459;28;44150;-75
2022/01/29 06:02:44;;;;;;;2.60;2.60;;;16.10;63.50;;;;;;5068265;28;44023;-75
2022/01/29 06:05:13;;;;;;;2.40;2.40;;;16.00;63.60;;;;;;5068139;28;44232;-75
2022/01/29 06:07:42;;;;;;;2.70;2.63;;;16.00;63.70;;;;;;5067233;28;44178;-75
2022/01/29 06:10:11;;;;;;;2.63;2.63;;;15.90;63.80;;;;;;5060532;28;44019;-75
2022/01/29 06:12:40;;;;;;;2.73;2.70;;;15.90;63.80;;;;;;5044617;28;43901;-75
2022/01/29 06:15:11;;;;;;;2.43;2.43;;;15.90;63.90;;;;;;5067596;28;44063;-75
2022/01/29 06:17:40;;;;;;;3.10;3.00;;;15.90;64.10;;;;;;5050084;28;43965;-75
2022/01/29 06:20:12;;;;;;;2.90;2.80;;;15.90;64.10;;;;;;5049970;28;44840;-75
2022/01/29 06:22:42;;;;;;;2.53;2.50;;;16.10;64.00;;;;;;5059595;28;44425;-75
2022/01/29 06:25:11;;;;;;;3.03;2.93;;;16.20;63.40;;;;;;5077807;28;44136;-75
2022/01/29 06:27:46;;;;;;;2.70;2.60;;;16.40;63.10;;;;;;5034680;28;44155;-75
2022/01/29 06:30:16;;;;;;;2.90;2.80;;;16.40;62.60;;;;;;5050075;28;44068;-75
2022/01/29 06:32:45;;;;;;;2.90;2.80;;;16.40;62.50;;;;;;5066467;28;44595;-75
2022/01/29 06:35:14;;;;;;;2.93;2.83;;;16.30;62.50;;;;;;5049579;28;43984;-75
2022/01/29 06:37:43;;;;;;;2.63;2.53;;;16.30;62.80;;;;;;5049796;28;43925;-75
2022/01/29 06:40:14;;;;;;;2.40;2.40;;;16.20;62.90;;;;;;5049731;28;44092;-75
2022/01/29 06:42:44;;;;;;;2.50;2.50;;;16.10;63.10;;;;;;5065949;28;43468;-75
2022/01/29 06:45:15;;;;;;;2.50;2.50;;;16.10;63.30;;;;;;5066937;28;44343;-75
2022/01/29 06:47:45;;;;;;;2.60;2.50;;;16.00;63.50;;;;;;5066426;28;44041;-75
2022/01/29 06:50:13;;;;;;;2.60;2.50;;;16.00;63.60;;;;;;5066587;28;44646;-75
2022/01/29 06:52:45;;;;;;;2.80;2.70;;;16.00;63.80;;;;;;5049601;28;44078;-75
2022/01/29 06:55:14;;;;;;;2.50;2.50;;;15.90;63.80;;;;;;5049011;28;43985;-75
2022/01/29 06:57:43;;;;;;;2.40;2.40;;;15.90;63.90;;;;;;5048589;28;43681;-75
2022/01/29 07:00:33;;;;;;;2.50;2.50;;;15.90;64.10;;;;;;5037984;28;45558;-75
2022/01/29 07:03:04;;;;;;;2.97;2.87;;;16.00;64.00;;;;;;5064578;28;43971;-75
2022/01/29 07:05:33;;;;;;;3.00;2.90;;;16.10;63.50;;;;;;5064958;28;44008;-75
2022/01/29 07:08:02;;;;;;;2.97;2.87;;;16.20;63.20;;;;;;5065293;28;44008;-75
2022/01/29 07:10:30;;;;;;;2.63;2.63;;;16.10;63.10;;;;;;5031163;28;44761;-75
2022/01/29 07:12:59;;;;;;;2.90;2.80;;;16.10;63.20;;;;;;5064513;28;44031;-75
2022/01/29 07:15:27;;;;;;;2.73;2.73;;;16.10;63.40;;;;;;5048193;28;44019;-75
2022/01/29 07:17:57;;;;;;;2.90;2.80;;;16.00;63.50;;;;;;5064644;28;43948;-75
2022/01/29 07:20:26;;;;;;;2.60;2.60;;;16.00;63.70;;;;;;5047686;28;44174;-75
2022/01/29 07:22:55;;;;;;;2.30;2.30;;;15.90;63.70;;;;;;5047665;28;44069;-74
2022/01/29 07:25:25;;;;;;;2.73;2.67;;;15.90;63.80;;;;;;5065021;28;44177;-75
2022/01/29 07:27:53;;;;;;;2.87;2.77;;;15.90;63.90;;;;;;5048527;28;44128;-74
2022/01/29 07:30:22;;;;;;;2.60;2.60;;;15.90;64.00;;;;;;5031834;28;43789;-74
2022/01/29 07:32:52;;;;;;;3.00;2.90;;;15.90;64.10;;;;;;5047889;28;44742;-74
2022/01/29 07:35:24;;;;;;;2.87;2.83;;;15.90;64.10;;;;;;5048648;28;44125;-75
2022/01/29 07:37:54;;;;;;;2.70;2.70;;;15.90;64.10;;;;;;5048135;28;44097;-80
2022/01/29 07:40:24;;;;;;;2.93;2.83;;;15.90;64.30;;;;;;5049766;28;44952;-80
2022/01/29 07:42:52;;;;;;;2.60;2.53;;;15.90;64.20;;;;;;5048117;28;44056;-75
2022/01/29 07:45:23;;;;;;;2.80;2.70;;;16.10;63.90;;;;;;5048355;28;43921;-75
2022/01/29 07:47:52;;;;;;;2.53;2.53;;;16.30;63.40;;;;;;5064410;28;43550;-75
2022/01/29 07:50:21;;;;;;;2.60;2.50;;;16.40;62.90;;;;;;5030721;28;44056;-75
2022/01/29 07:52:51;;;;;;;2.40;2.40;;;16.50;62.50;;;;;;5064308;28;43365;-75
2022/01/29 07:55:19;;;;;;;2.70;2.70;;;16.50;62.30;;;;;;5035173;28;44060;-75
2022/01/29 07:57:48;;;;;;;2.53;2.53;;;16.50;62.20;;;;;;5051568;28;44096;-75
2022/01/29 08:00:17;;;;;;;2.30;2.30;;;16.40;62.40;;;;;;5051041;28;43956;-75
2022/01/29 08:02:45;;;;;;;2.27;2.27;;;16.30;62.60;;;;;;5051063;28;43990;-75
2022/01/29 08:05:14;;;;;;;2.53;2.53;;;16.20;62.80;;;;;;5035215;28;44017;-75
2022/01/29 08:07:42;;;;;;;2.40;2.40;;;16.20;63.10;;;;;;5034691;28;43929;-75
2022/01/29 08:10:12;;;;;;;2.53;2.50;;;16.10;63.20;;;;;;5051410;28;45407;-75
2022/01/29 08:12:42;;;;;;;2.40;2.40;;;16.10;63.50;;;;;;5068660;28;43406;-75
2022/01/29 08:15:11;;;;;;;2.30;2.30;;;16.00;63.50;;;;;;5068047;28;43891;-75
2022/01/29 08:17:40;;;;;;;2.40;2.40;;;16.00;63.60;;;;;;5067720;28;44061;-75
2022/01/29 08:20:12;;;;;;;2.60;2.60;;;16.00;63.80;;;;;;5067122;28;46672;-75
2022/01/29 08:22:41;;;;;;;2.30;2.30;;;16.00;64.20;;;;;;5060976;28;43968;-75
2022/01/29 08:25:13;;;;;;;2.20;2.20;;;16.10;63.80;;;;;;5061238;28;43941;-75
2022/01/29 08:27:42;;;;;;;2.00;2.00;;;16.20;63.40;;;;;;5050741;28;43522;-75
2022/01/29 08:30:12;;;;;;;2.60;2.60;;;16.20;63.00;;;;;;5048584;28;44639;-75
2022/01/29 08:32:42;;;;;;;2.30;2.30;;;16.20;63.00;;;;;;5066521;28;43801;-75
2022/01/29 08:35:12;;;;;;;2.20;2.20;;;16.20;63.20;;;;;;5050275;28;43944;-75
2022/01/29 08:37:41;;;;;;;2.27;2.27;;;16.10;63.30;;;;;;5050975;28;44001;-75
2022/01/29 08:40:14;;;;;;;2.30;2.20;;;16.10;63.50;;;;;;5066959;28;44943;-75
2022/01/29 08:42:42;;;;;;;2.10;2.10;;;16.00;63.50;;;;;;5050439;28;44579;-75
2022/01/29 08:45:12;;;;;;;2.20;2.20;;;16.00;63.70;;;;;;5050712;28;44041;-75
2022/01/29 08:47:49;;;;;;;2.23;2.23;;;15.90;63.80;;;;;;5052213;28;44306;-78
2022/01/29 08:50:18;;;;;;;2.20;2.20;;;15.90;63.90;;;;;;5037401;28;44056;-75
2022/01/29 08:52:48;;;;;;;2.13;2.13;;;15.90;64.00;;;;;;5051153;28;43434;-76
2022/01/29 08:55:20;;;;;;;2.00;2.00;;;15.90;64.10;;;;;;5034689;28;44044;-75
2022/01/29 08:57:50;;;;;;;2.33;2.33;;;15.90;64.10;;;;;;5051009;28;43956;-75
2022/01/29 09:00:20;;;;;;;1.90;1.90;;;15.90;64.00;;;;;;5033910;28;44073;-74
2022/01/29 09:02:53;;;;;;;2.20;2.20;;;15.90;64.30;;;;;;5050131;28;44019;-77
2022/01/29 09:05:22;;;;;;;2.13;2.13;;;16.00;64.20;;;;;;5049128;28;44035;-77
2022/01/29 09:07:50;;;;;;;2.50;2.50;;;16.10;64.50;;;;;;5068290;28;43988;-78
2022/01/29 09:10:21;;;;;;;2.20;2.20;;;16.30;63.30;;;;;;5066498;28;45316;-74
2022/01/29 09:12:50;;;;;;;2.10;2.10;;;16.40;62.90;;;;;;5060675;28;43435;-74
2022/01/29 09:15:19;;;;;;;2.13;2.13;;;16.50;62.50;;;;;;5044009;28;43957;-75
2022/01/29 09:17:49;;;;;;;2.20;2.10;;;16.50;62.30;;;;;;5067058;28;44003;-75
2022/01/29 09:20:17;;;;;;;1.87;1.87;;;16.40;62.20;;;;;;5033736;28;44247;-74
2022/01/29 09:22:45;;;;;;;1.80;1.80;;;16.30;62.60;;;;;;5033536;28;43946;-74
2022/01/29 09:25:14;;;;;;;2.20;2.20;;;16.20;62.80;;;;;;5033259;28;44003;-74
2022/01/29 09:27:44;;;;;;;1.83;1.83;;;16.20;63.10;;;;;;5050332;28;43910;-77
2022/01/29 09:30:12;;;;;;;1.93;1.93;;;16.10;63.20;;;;;;5049988;28;44053;-75
2022/01/29 09:32:40;;;;;;;2.10;2.10;;;16.10;63.40;;;;;;5066306;28;43384;-73
2022/01/29 09:35:10;;;;;;;2.10;2.10;;;16.00;63.50;;;;;;5066273;28;44169;-76
2022/01/29 09:37:38;;;;;;;1.87;1.87;;;15.90;63.50;;;;;;5067026;28;43831;-75
2022/01/29 09:40:08;;;;;;;1.90;1.90;;;15.90;63.60;;;;;;5049568;28;44046;-74
2022/01/29 09:42:37;;;;;;;2.20;2.00;;;15.90;64.00;;;;;;5033009;28;44067;-77
2022/01/29 09:45:09;;;;;;;1.87;1.87;;;16.00;64.20;;;;;;5033626;28;43937;-75
2022/01/29 09:47:38;;;;;;;1.80;1.80;;;16.10;63.80;;;;;;5066768;28;44087;-75
2022/01/29 09:50:09;;;;;;;1.83;1.80;;;16.10;63.20;;;;;;5050590;28;43914;-75
2022/01/29 09:52:37;;;;;;;2.00;2.00;;;16.20;63.00;;;;;;5049407;28;44078;-75
2022/01/29 09:55:07;;;;;;;1.90;1.90;;;16.10;63.10;;;;;;5033111;28;44005;-75
2022/01/29 09:57:35;;;;;;;1.93;1.93;;;16.10;63.30;;;;;;5049715;28;44185;-74
2022/01/29 10:00:03;;;;;;;1.90;1.90;;;16.00;63.40;;;;;;5049143;28;45053;-74
2022/01/29 10:02:40;;;;;;;1.80;1.80;;;16.00;63.60;;;;;;5063027;28;44008;-74
2022/01/29 10:05:12;;;;;;;2.00;2.00;;;16.00;63.80;;;;;;5049572;28;43823;-74
2022/01/29 10:07:40;;;;;;;2.00;2.00;;;15.90;63.80;;;;;;5049967;28;43961;-74
2022/01/29 10:10:18;;;;;;;1.80;1.80;;;15.90;64.00;;;;;;5049282;28;44660;-74
2022/01/29 10:12:46;;;;;;;1.80;1.80;;;15.90;64.00;;;;;;5049642;28;44422;-74
2022/01/29 10:15:14;;;;;;;1.77;1.77;;;15.90;64.10;;;;;;5026318;28;43917;-75
2022/01/29 10:17:47;;;;;;;1.90;1.80;;;15.90;64.10;;;;;;5011342;28;43788;-75
2022/01/29 10:20:18;;;;;;;1.90;1.90;;;15.80;64.00;;;;;;5043193;28;45393;-75
2022/01/29 10:22:48;;;;;;;1.80;1.70;;;15.80;64.10;;;;;;5032819;28;43964;-75
2022/01/29 10:25:19;;;;;;;1.70;1.70;;;15.80;64.50;;;;;;5066335;28;43913;-75
2022/01/29 10:28:11;;;;;;;1.67;1.67;;;16.00;64.40;;;;;;5033432;28;44195;-75
2022/01/29 10:30:55;;;;;;;1.60;1.60;;;16.20;63.80;;;;;;5065188;28;45043;-75
2022/01/29 10:33:26;;;;;;;1.70;1.70;;;16.30;63.20;;;;;;5065942;28;44047;-74
2022/01/29 10:35:55;;;;;;;1.97;1.97;;;16.50;62.80;;;;;;5049088;28;43729;-74
2022/01/29 10:38:25;;;;;;;1.60;1.60;;;16.50;62.40;;;;;;5049657;28;43645;-74
2022/01/29 10:41:14;;;;;;;1.60;1.60;;;16.40;62.20;;;;;;5067186;28;44114;-74
2022/01/29 10:44:14;;;;;;;1.63;1.63;;;16.30;62.50;;;;;;5066537;28;44064;-74
2022/01/29 10:46:44;;;;;;;2.60;2.40;;;16.30;62.90;;;;;;5065544;28;44028;-75
2022/01/29 10:49:23;;;;;;;3.70;2.23;;;16.20;63.10;;;;;;5049705;28;43790;-75
2022/01/29 10:51:56;;;;;;;2.70;2.50;;;16.10;63.30;;;;;;5065624;28;44251;-75
2022/01/29 10:54:25;;;;;;;5.07;3.10;;;16.00;63.60;;;;;;5049500;28;43839;-74
2022/01/29 10:56:56;;;;;;;4.67;3.40;;;16.00;63.70;;;;;;5065537;28;44082;-74
2022/01/29 10:59:24;;;;;;;6.43;3.60;;;16.00;63.80;;;;;;5032944;28;43945;-74
2022/01/29 11:01:54;;;;;;;11.73;4.40;;;15.90;63.80;;;;;;5032474;28;44194;-75
2022/01/29 11:04:26;;;;;;;8.83;4.50;;;15.90;64.00;;;;;;5065478;28;44029;-75
2022/01/29 11:06:56;;;;;;;11.17;5.03;;;15.90;64.10;;;;;;5033038;28;43507;-75
2022/01/29 11:09:24;;;;;;;15.20;5.83;;;16.10;64.10;;;;;;5049240;28;43598;-74
2022/01/29 11:11:54;;;;;;;10.57;5.57;;;16.20;63.50;;;;;;5032735;28;44215;-74
2022/01/29 11:14:22;;;;;;;13.70;5.57;;;16.20;63.20;;;;;;5048177;28;43897;-75
2022/01/29 11:16:51;;;;;;;12.10;5.37;;;16.10;63.10;;;;;;5032312;28;43933;-75
2022/01/29 11:19:24;;;;;;;13.93;5.83;;;16.10;63.40;;;;;;5033661;28;43998;-74
2022/01/29 11:21:53;;;;;;;18.43;5.93;;;16.10;63.60;;;;;;5042445;28;44257;-75
2022/01/29 11:24:24;;;;;;;14.87;6.20;;;16.00;63.60;;;;;;5032104;28;44028;-75
2022/01/29 11:26:52;;;;;;;13.60;5.87;;;16.00;63.80;;;;;;5032113;28;43882;-75
2022/01/29 11:29:29;;;;;;;11.80;5.77;;;15.90;64.00;;;;;;5047863;28;44059;-75
2022/01/29 11:32:33;;;;;;;13.83;6.10;;;15.90;64.10;;;;;;5064068;28;44678;-75
2022/01/29 11:35:07;;;;;;;10.97;6.27;;;15.90;64.10;;;;;;5034071;28;44124;-74
2022/01/29 11:37:45;;;;;;;13.20;6.03;;;15.90;64.10;;;;;;5048511;28;44064;-74
2022/01/29 11:40:18;;;;;;;10.57;6.03;;;15.90;64.20;;;;;;5065171;28;44007;-75
2022/01/29 11:43:07;;;;;;;14.60;6.20;;;15.80;64.30;;;;;;5031832;28;44080;-75
2022/01/29 11:45:51;;;;;;;14.37;6.00;;;15.80;64.20;;;;;;5064516;28;44044;-75
2022/01/29 11:48:58;;;;;;;20.57;6.93;;;15.90;64.50;;;;;;5063246;28;44556;-75
2022/01/29 11:51:47;;;;;;;14.70;6.27;;;16.10;64.20;;;;;;5050650;28;43962;-75
2022/01/29 11:54:17;;;;;;;13.97;6.07;;;16.30;63.60;;;;;;5064570;28;43896;-75
2022/01/29 11:56:45;;;;;;;16.73;5.90;;;16.40;63.10;;;;;;5047621;28;44068;-75
2022/01/29 11:59:30;;;;;;;10.33;5.17;;;16.50;62.70;;;;;;5047886;28;44222;-76
2022/01/29 12:02:01;;;;;;;10.23;5.17;;;16.50;62.30;;;;;;5064444;28;44014;-75
2022/01/29 12:05:08;;;;;;;9.00;5.20;;;16.40;62.40;;;;;;5048045;28;44078;-75
2022/01/29 12:08:16;;;;;;;9.23;5.47;;;16.30;62.80;;;;;;5064347;28;44034;-75
2022/01/29 12:10:53;;;;;;;9.40;5.23;;;16.20;63.00;;;;;;5029550;28;44022;-75
2022/01/29 12:13:22;;;;;;;11.03;5.40;;;16.10;63.30;;;;;;5046885;28;44080;-75
2022/01/29 12:15:57;;;;;;;9.43;5.03;;;16.10;63.50;;;;;;5055559;28;44629;-75
2022/01/29 12:18:34;;;;;;;6.63;4.60;;;16.00;63.70;;;;;;5047569;28;44236;-75
2022/01/29 12:21:02;;;;;;;6.60;4.43;;;16.00;63.80;;;;;;5031705;28;43849;-75
2022/01/29 12:23:47;;;;;;;11.77;5.37;;;16.00;64.00;;;;;;5047905;28;43936;-75
2022/01/29 12:26:19;;;;;;;8.67;5.40;;;15.90;64.00;;;;;;5046661;28;44113;-75
2022/01/29 12:28:49;;;;;;;7.20;4.80;;;15.90;64.20;;;;;;5064097;28;44222;-75
2022/01/29 12:31:19;;;;;;;8.03;4.73;;;16.00;64.20;;;;;;5063983;28;43902;-75
2022/01/29 12:33:48;;;;;;;9.30;4.97;;;16.10;63.70;;;;;;5064826;28;43964;-75
2022/01/29 12:36:18;;;;;;;8.77;4.60;;;16.20;63.30;;;;;;5030487;28;45115;-75
2022/01/29 12:38:48;;;;;;;6.00;4.23;;;16.20;63.10;;;;;;5047954;28;43949;-76
2022/01/29 12:41:25;;;;;;;6.07;4.50;;;16.10;63.30;;;;;;5050632;28;43986;-74
2022/01/29 12:43:54;;;;;;;5.10;4.13;;;16.10;63.50;;;;;;5067838;28;44091;-75
2022/01/29 12:46:23;;;;;;;5.47;3.97;;;16.00;63.60;;;;;;5067224;28;43905;-74
2022/01/29 12:48:59;;;;;;;5.67;4.53;;;16.00;63.80;;;;;;5050982;28;43873;-74
2022/01/29 12:51:27;;;;;;;5.77;4.20;;;15.90;63.90;;;;;;5050466;28;43901;-75
2022/01/29 12:54:01;;;;;;;5.63;4.63;;;15.90;64.10;;;;;;5050599;28;44007;-74
2022/01/29 12:56:33;;;;;;;5.33;3.77;;;15.90;64.10;;;;;;5050610;28;43978;-74
2022/01/29 12:59:01;;;;;;;4.57;4.07;;;15.90;64.20;;;;;;5067845;28;44143;-75
2022/01/29 13:01:30;;;;;;;5.63;4.30;;;15.90;64.10;;;;;;5034199;28;43841;-74
2022/01/29 13:04:02;;;;;;;6.90;3.93;;;15.80;64.10;;;;;;5017652;28;43636;-74
2022/01/29 13:06:30;;;;;;;5.10;3.80;;;15.80;64.20;;;;;;5033929;28;45006;-75
2022/01/29 13:09:15;;;;;;;4.37;3.80;;;15.80;64.30;;;;;;5050129;28;43470;-75
2022/01/29 13:11:44;;;;;;;4.63;3.73;;;15.90;64.60;;;;;;5031858;28;43963;-76
2022/01/29 13:14:16;;;;;;;6.20;4.07;;;16.00;64.20;;;;;;5050524;28;44004;-74